sensor_id;sensor_type;location;lat;lon;timestamp;P1;durP1;ratioP1;P2;durP2;ratioP2
5117;SDS011;2578;51.622;7.046;2022-12-18T00:01:40;10.90;;;10.17;;
5117;SDS011;2578;51.622;7.046;2022-12-18T00:04:07;12.43;;;9.53;;
5117;SDS011;2578;51.622;7.046;2022-12-18T00:06:47;4.30;;;4.00;;
5117;SDS011;2578;51.622;7.046;2022-12-18T00:09:12;3.90;;;3.60;;
5117;SDS011;2578;51.622;7.046;2022-12-18T00:11:38;4.10;;;3.80;;
5117;SDS011;2578;51.622;7.046;2022-12-18T00:14:03;4.50;;;4.10;;
5117;SDS011;2578;51.622;7.046;2022-12-18T00:16:29;3.70;;;3.40;;
5117;SDS011;2578;51.622;7.046;2022-12-18T00:18:58;10.03;;;6.07;;
5117;SDS011;2578;51.622;7.046;2022-12-18T00:21:24;7.23;;;4.57;;
5117;SDS011;2578;51.622;7.046;2022-12-18T00:23:51;4.47;;;4.07;;
5117;SDS011;2578;51.622;7.046;2022-12-18T00:26:21;3.60;;;3.30;;
5117;SDS011;2578;51.622;7.046;2022-12-18T00:28:52;3.73;;;3.43;;
5117;SDS011;2578;51.622;7.046;2022-12-18T00:31:19;3.40;;;3.10;;
5117;SDS011;2578;51.622;7.046;2022-12-18T00:33:46;3.90;;;3.60;;
5117;SDS011;2578;51.622;7.046;2022-12-18T00:36:13;3.40;;;3.10;;
5117;SDS011;2578;51.622;7.046;2022-12-18T00:38:40;3.00;;;2.70;;
5117;SDS011;2578;51.622;7.046;2022-12-18T00:41:06;6.00;;;5.37;;
5117;SDS011;2578;51.622;7.046;2022-12-18T00:43:33;6.80;;;5.60;;
5117;SDS011;2578;51.622;7.046;2022-12-18T00:45:59;3.50;;;3.20;;
5117;SDS011;2578;51.622;7.046;2022-12-18T00:48:24;3.40;;;3.10;;
5117;SDS011;2578;51.622;7.046;2022-12-18T00:50:50;3.10;;;2.80;;
5117;SDS011;2578;51.622;7.046;2022-12-18T00:53:16;3.10;;;2.80;;
5117;SDS011;2578;51.622;7.046;2022-12-18T00:55:42;3.13;;;2.83;;
5117;SDS011;2578;51.622;7.046;2022-12-18T00:58:08;3.30;;;3.00;;
5117;SDS011;2578;51.622;7.046;2022-12-18T01:00:35;4.33;;;4.00;;
5117;SDS011;2578;51.622;7.046;2022-12-18T01:03:01;3.70;;;3.40;;
5117;SDS011;2578;51.622;7.046;2022-12-18T01:05:27;3.30;;;3.00;;
5117;SDS011;2578;51.622;7.046;2022-12-18T01:07:53;4.20;;;3.83;;
5117;SDS011;2578;51.622;7.046;2022-12-18T01:10:20;7.40;;;6.67;;
5117;SDS011;2578;51.622;7.046;2022-12-18T01:12:45;3.90;;;3.60;;
5117;SDS011;2578;51.622;7.046;2022-12-18T01:15:11;5.50;;;5.10;;
5117;SDS011;2578;51.622;7.046;2022-12-18T01:17:38;5.40;;;4.90;;
5117;SDS011;2578;51.622;7.046;2022-12-18T01:20:04;28.97;;;6.83;;
5117;SDS011;2578;51.622;7.046;2022-12-18T01:22:30;9.20;;;5.33;;
5117;SDS011;2578;51.622;7.046;2022-12-18T01:24:58;3.70;;;3.40;;
5117;SDS011;2578;51.622;7.046;2022-12-18T01:27:24;4.17;;;3.87;;
5117;SDS011;2578;51.622;7.046;2022-12-18T01:29:51;6.07;;;5.50;;
5117;SDS011;2578;51.622;7.046;2022-12-18T01:32:16;5.63;;;5.00;;
5117;SDS011;2578;51.622;7.046;2022-12-18T01:34:42;4.47;;;4.10;;
5117;SDS011;2578;51.622;7.046;2022-12-18T01:37:07;3.70;;;3.40;;
5117;SDS011;2578;51.622;7.046;2022-12-18T01:39:33;22.40;;;20.13;;
5117;SDS011;2578;51.622;7.046;2022-12-18T01:41:59;10.73;;;4.37;;
5117;SDS011;2578;51.622;7.046;2022-12-18T01:47:26;10.77;;;5.73;;
5117;SDS011;2578;51.622;7.046;2022-12-18T01:50:07;3.20;;;2.90;;
5117;SDS011;2578;51.622;7.046;2022-12-18T01:52:38;7.53;;;6.03;;
5117;SDS011;2578;51.622;7.046;2022-12-18T01:55:07;3.10;;;2.80;;
5117;SDS011;2578;51.622;7.046;2022-12-18T01:57:34;3.47;;;3.17;;
5117;SDS011;2578;51.622;7.046;2022-12-18T02:00:01;3.93;;;3.53;;
5117;SDS011;2578;51.622;7.046;2022-12-18T02:02:29;3.33;;;3.00;;
5117;SDS011;2578;51.622;7.046;2022-12-18T02:04:55;5.00;;;3.87;;
5117;SDS011;2578;51.622;7.046;2022-12-18T02:07:42;4.40;;;3.80;;
5117;SDS011;2578;51.622;7.046;2022-12-18T02:13:18;2.90;;;2.60;;
5117;SDS011;2578;51.622;7.046;2022-12-18T02:16:00;2.70;;;2.40;;
5117;SDS011;2578;51.622;7.046;2022-12-18T02:18:45;3.20;;;2.90;;
5117;SDS011;2578;51.622;7.046;2022-12-18T02:29:13;14.33;;;6.43;;
5117;SDS011;2578;51.622;7.046;2022-12-18T02:31:50;2.70;;;2.30;;
5117;SDS011;2578;51.622;7.046;2022-12-18T02:34:18;2.60;;;2.10;;
5117;SDS011;2578;51.622;7.046;2022-12-18T02:36:47;3.93;;;3.53;;
5117;SDS011;2578;51.622;7.046;2022-12-18T02:39:14;2.63;;;2.30;;
5117;SDS011;2578;51.622;7.046;2022-12-18T02:41:40;3.33;;;3.03;;
5117;SDS011;2578;51.622;7.046;2022-12-18T02:44:07;3.00;;;2.70;;
5117;SDS011;2578;51.622;7.046;2022-12-18T02:46:39;3.07;;;2.77;;
5117;SDS011;2578;51.622;7.046;2022-12-18T02:51:41;2.87;;;2.57;;
5117;SDS011;2578;51.622;7.046;2022-12-18T02:55:13;2.87;;;2.57;;
5117;SDS011;2578;51.622;7.046;2022-12-18T02:57:42;5.10;;;4.60;;
5117;SDS011;2578;51.622;7.046;2022-12-18T03:00:20;3.07;;;2.77;;
5117;SDS011;2578;51.622;7.046;2022-12-18T03:02:54;3.17;;;2.87;;
5117;SDS011;2578;51.622;7.046;2022-12-18T03:05:38;3.23;;;2.93;;
5117;SDS011;2578;51.622;7.046;2022-12-18T03:08:18;6.70;;;5.00;;
5117;SDS011;2578;51.622;7.046;2022-12-18T03:10:59;4.53;;;4.13;;
5117;SDS011;2578;51.622;7.046;2022-12-18T03:13:31;3.30;;;3.00;;
5117;SDS011;2578;51.622;7.046;2022-12-18T03:16:18;4.60;;;4.20;;
5117;SDS011;2578;51.622;7.046;2022-12-18T03:18:51;4.40;;;3.67;;
5117;SDS011;2578;51.622;7.046;2022-12-18T03:21:27;7.77;;;5.57;;
5117;SDS011;2578;51.622;7.046;2022-12-18T03:24:00;3.00;;;2.70;;
5117;SDS011;2578;51.622;7.046;2022-12-18T03:26:28;3.27;;;2.97;;
5117;SDS011;2578;51.622;7.046;2022-12-18T03:28:59;3.97;;;3.57;;
5117;SDS011;2578;51.622;7.046;2022-12-18T03:31:30;4.93;;;4.20;;
5117;SDS011;2578;51.622;7.046;2022-12-18T03:34:04;3.30;;;3.00;;
5117;SDS011;2578;51.622;7.046;2022-12-18T03:36:34;3.03;;;2.73;;
5117;SDS011;2578;51.622;7.046;2022-12-18T03:39:00;4.97;;;4.57;;
5117;SDS011;2578;51.622;7.046;2022-12-18T03:41:39;6.00;;;5.43;;
5117;SDS011;2578;51.622;7.046;2022-12-18T03:52:35;4.70;;;4.30;;
5117;SDS011;2578;51.622;7.046;2022-12-18T03:55:05;2.70;;;2.40;;
5117;SDS011;2578;51.622;7.046;2022-12-18T03:57:33;3.80;;;3.50;;
5117;SDS011;2578;51.622;7.046;2022-12-18T04:00:04;2.80;;;2.50;;
5117;SDS011;2578;51.622;7.046;2022-12-18T04:02:33;3.30;;;3.00;;
5117;SDS011;2578;51.622;7.046;2022-12-18T04:05:03;3.33;;;3.03;;
5117;SDS011;2578;51.622;7.046;2022-12-18T04:07:32;8.00;;;7.30;;
5117;SDS011;2578;51.622;7.046;2022-12-18T04:09:59;3.30;;;3.00;;
5117;SDS011;2578;51.622;7.046;2022-12-18T04:12:28;6.33;;;3.97;;
5117;SDS011;2578;51.622;7.046;2022-12-18T04:14:54;3.23;;;2.93;;
5117;SDS011;2578;51.622;7.046;2022-12-18T04:17:21;2.83;;;2.50;;
5117;SDS011;2578;51.622;7.046;2022-12-18T04:19:47;5.10;;;4.20;;
5117;SDS011;2578;51.622;7.046;2022-12-18T04:22:13;3.47;;;3.17;;
5117;SDS011;2578;51.622;7.046;2022-12-18T04:24:39;4.43;;;4.03;;
5117;SDS011;2578;51.622;7.046;2022-12-18T04:27:04;3.20;;;2.90;;
5117;SDS011;2578;51.622;7.046;2022-12-18T04:29:30;3.03;;;2.73;;
5117;SDS011;2578;51.622;7.046;2022-12-18T04:31:55;5.73;;;5.20;;
5117;SDS011;2578;51.622;7.046;2022-12-18T04:34:21;3.90;;;3.60;;
5117;SDS011;2578;51.622;7.046;2022-12-18T04:36:47;10.93;;;4.60;;
5117;SDS011;2578;51.622;7.046;2022-12-18T04:39:13;12.17;;;3.93;;
5117;SDS011;2578;51.622;7.046;2022-12-18T04:41:39;3.73;;;3.43;;
5117;SDS011;2578;51.622;7.046;2022-12-18T04:44:04;6.07;;;5.57;;
5117;SDS011;2578;51.622;7.046;2022-12-18T04:46:30;5.33;;;4.60;;
5117;SDS011;2578;51.622;7.046;2022-12-18T04:48:55;3.43;;;2.83;;
5117;SDS011;2578;51.622;7.046;2022-12-18T04:51:21;4.13;;;2.97;;
5117;SDS011;2578;51.622;7.046;2022-12-18T04:53:47;2.67;;;2.20;;
5117;SDS011;2578;51.622;7.046;2022-12-18T04:56:13;2.53;;;2.10;;
5117;SDS011;2578;51.622;7.046;2022-12-18T04:58:40;2.90;;;2.60;;
5117;SDS011;2578;51.622;7.046;2022-12-18T05:01:08;3.00;;;2.70;;
5117;SDS011;2578;51.622;7.046;2022-12-18T05:03:35;7.37;;;6.77;;
5117;SDS011;2578;51.622;7.046;2022-12-18T05:06:01;9.07;;;7.63;;
5117;SDS011;2578;51.622;7.046;2022-12-18T05:08:27;4.57;;;4.07;;
5117;SDS011;2578;51.622;7.046;2022-12-18T05:11:02;6.23;;;4.40;;
5117;SDS011;2578;51.622;7.046;2022-12-18T05:13:28;3.87;;;3.57;;
5117;SDS011;2578;51.622;7.046;2022-12-18T05:15:54;5.33;;;4.30;;
5117;SDS011;2578;51.622;7.046;2022-12-18T05:18:20;11.43;;;4.57;;
5117;SDS011;2578;51.622;7.046;2022-12-18T05:20:47;2.80;;;2.40;;
5117;SDS011;2578;51.622;7.046;2022-12-18T05:23:12;2.90;;;2.60;;
5117;SDS011;2578;51.622;7.046;2022-12-18T05:25:38;3.37;;;3.07;;
5117;SDS011;2578;51.622;7.046;2022-12-18T05:28:03;5.23;;;4.83;;
5117;SDS011;2578;51.622;7.046;2022-12-18T05:30:29;2.93;;;2.63;;
5117;SDS011;2578;51.622;7.046;2022-12-18T05:32:55;3.33;;;3.03;;
5117;SDS011;2578;51.622;7.046;2022-12-18T05:35:20;2.90;;;2.60;;
5117;SDS011;2578;51.622;7.046;2022-12-18T05:37:46;2.83;;;2.53;;
5117;SDS011;2578;51.622;7.046;2022-12-18T05:40:11;2.70;;;2.40;;
5117;SDS011;2578;51.622;7.046;2022-12-18T05:42:37;3.00;;;2.63;;
5117;SDS011;2578;51.622;7.046;2022-12-18T05:45:03;2.70;;;2.40;;
5117;SDS011;2578;51.622;7.046;2022-12-18T05:47:30;2.73;;;2.40;;
5117;SDS011;2578;51.622;7.046;2022-12-18T05:49:55;2.63;;;2.30;;
5117;SDS011;2578;51.622;7.046;2022-12-18T05:52:21;3.00;;;2.70;;
5117;SDS011;2578;51.622;7.046;2022-12-18T05:54:47;3.40;;;3.10;;
5117;SDS011;2578;51.622;7.046;2022-12-18T05:57:12;3.33;;;3.03;;
5117;SDS011;2578;51.622;7.046;2022-12-18T05:59:38;10.40;;;5.10;;
5117;SDS011;2578;51.622;7.046;2022-12-18T06:02:04;3.60;;;3.30;;
5117;SDS011;2578;51.622;7.046;2022-12-18T06:04:29;3.10;;;2.80;;
5117;SDS011;2578;51.622;7.046;2022-12-18T06:06:55;3.30;;;3.00;;
5117;SDS011;2578;51.622;7.046;2022-12-18T06:09:20;3.53;;;3.23;;
5117;SDS011;2578;51.622;7.046;2022-12-18T06:11:46;4.43;;;4.13;;
5117;SDS011;2578;51.622;7.046;2022-12-18T06:14:12;3.50;;;3.20;;
5117;SDS011;2578;51.622;7.046;2022-12-18T06:16:37;4.27;;;3.97;;
5117;SDS011;2578;51.622;7.046;2022-12-18T06:19:04;3.70;;;3.40;;
5117;SDS011;2578;51.622;7.046;2022-12-18T06:21:30;3.33;;;3.03;;
5117;SDS011;2578;51.622;7.046;2022-12-18T06:23:57;3.13;;;2.83;;
5117;SDS011;2578;51.622;7.046;2022-12-18T06:26:22;4.80;;;4.30;;
5117;SDS011;2578;51.622;7.046;2022-12-18T06:28:48;4.83;;;4.43;;
5117;SDS011;2578;51.622;7.046;2022-12-18T06:31:14;4.23;;;3.83;;
5117;SDS011;2578;51.622;7.046;2022-12-18T06:33:40;3.97;;;3.67;;
5117;SDS011;2578;51.622;7.046;2022-12-18T06:36:10;3.10;;;2.77;;
5117;SDS011;2578;51.622;7.046;2022-12-18T06:38:37;2.90;;;2.60;;
5117;SDS011;2578;51.622;7.046;2022-12-18T06:41:11;3.00;;;2.70;;
5117;SDS011;2578;51.622;7.046;2022-12-18T06:43:39;7.70;;;4.87;;
5117;SDS011;2578;51.622;7.046;2022-12-18T06:46:04;2.80;;;2.50;;
5117;SDS011;2578;51.622;7.046;2022-12-18T06:48:31;2.90;;;2.60;;
5117;SDS011;2578;51.622;7.046;2022-12-18T06:50:57;3.10;;;2.80;;
5117;SDS011;2578;51.622;7.046;2022-12-18T06:53:22;2.90;;;2.60;;
5117;SDS011;2578;51.622;7.046;2022-12-18T06:55:48;10.70;;;4.43;;
5117;SDS011;2578;51.622;7.046;2022-12-18T06:58:14;2.70;;;2.40;;
5117;SDS011;2578;51.622;7.046;2022-12-18T07:00:40;2.90;;;2.60;;
5117;SDS011;2578;51.622;7.046;2022-12-18T07:03:05;3.30;;;3.00;;
5117;SDS011;2578;51.622;7.046;2022-12-18T07:05:31;3.20;;;2.90;;
5117;SDS011;2578;51.622;7.046;2022-12-18T07:07:57;3.87;;;3.57;;
5117;SDS011;2578;51.622;7.046;2022-12-18T07:10:23;6.00;;;5.40;;
5117;SDS011;2578;51.622;7.046;2022-12-18T07:12:48;15.07;;;13.80;;
5117;SDS011;2578;51.622;7.046;2022-12-18T07:15:14;4.53;;;4.13;;
5117;SDS011;2578;51.622;7.046;2022-12-18T07:17:40;3.60;;;3.30;;
5117;SDS011;2578;51.622;7.046;2022-12-18T07:20:05;3.70;;;3.40;;
5117;SDS011;2578;51.622;7.046;2022-12-18T07:22:31;3.87;;;3.57;;
5117;SDS011;2578;51.622;7.046;2022-12-18T07:24:57;3.50;;;3.20;;
5117;SDS011;2578;51.622;7.046;2022-12-18T07:27:23;3.40;;;3.10;;
5117;SDS011;2578;51.622;7.046;2022-12-18T07:29:49;3.50;;;3.20;;
5117;SDS011;2578;51.622;7.046;2022-12-18T07:32:14;3.20;;;2.90;;
5117;SDS011;2578;51.622;7.046;2022-12-18T07:34:40;3.60;;;3.30;;
5117;SDS011;2578;51.622;7.046;2022-12-18T07:37:06;3.70;;;3.40;;
5117;SDS011;2578;51.622;7.046;2022-12-18T07:39:32;3.60;;;3.30;;
5117;SDS011;2578;51.622;7.046;2022-12-18T07:41:57;3.77;;;3.47;;
5117;SDS011;2578;51.622;7.046;2022-12-18T07:45:02;4.17;;;3.87;;
5117;SDS011;2578;51.622;7.046;2022-12-18T07:47:28;3.70;;;3.40;;
5117;SDS011;2578;51.622;7.046;2022-12-18T07:49:59;3.30;;;3.00;;
5117;SDS011;2578;51.622;7.046;2022-12-18T07:52:24;3.00;;;2.70;;
5117;SDS011;2578;51.622;7.046;2022-12-18T07:54:50;3.30;;;3.00;;
5117;SDS011;2578;51.622;7.046;2022-12-18T07:57:16;3.60;;;3.30;;
5117;SDS011;2578;51.622;7.046;2022-12-18T07:59:42;3.40;;;3.10;;
5117;SDS011;2578;51.622;7.046;2022-12-18T08:02:08;3.70;;;3.40;;
5117;SDS011;2578;51.622;7.046;2022-12-18T08:04:34;3.40;;;3.10;;
5117;SDS011;2578;51.622;7.046;2022-12-18T08:07:00;3.40;;;3.10;;
5117;SDS011;2578;51.622;7.046;2022-12-18T08:09:25;6.53;;;3.93;;
5117;SDS011;2578;51.622;7.046;2022-12-18T08:11:51;3.57;;;3.13;;
5117;SDS011;2578;51.622;7.046;2022-12-18T08:14:16;2.80;;;2.40;;
5117;SDS011;2578;51.622;7.046;2022-12-18T08:16:42;2.90;;;2.50;;
5117;SDS011;2578;51.622;7.046;2022-12-18T08:19:08;2.93;;;2.57;;
5117;SDS011;2578;51.622;7.046;2022-12-18T08:21:35;3.30;;;2.97;;
5117;SDS011;2578;51.622;7.046;2022-12-18T08:24:01;3.63;;;3.00;;
5117;SDS011;2578;51.622;7.046;2022-12-18T08:26:28;2.90;;;2.40;;
5117;SDS011;2578;51.622;7.046;2022-12-18T08:28:55;3.00;;;2.50;;
5117;SDS011;2578;51.622;7.046;2022-12-18T08:31:22;2.90;;;2.30;;
5117;SDS011;2578;51.622;7.046;2022-12-18T08:33:50;3.37;;;2.97;;
5117;SDS011;2578;51.622;7.046;2022-12-18T08:36:16;3.00;;;2.40;;
5117;SDS011;2578;51.622;7.046;2022-12-18T08:38:42;9.33;;;5.17;;
5117;SDS011;2578;51.622;7.046;2022-12-18T08:41:09;2.73;;;2.00;;
5117;SDS011;2578;51.622;7.046;2022-12-18T08:43:36;3.43;;;2.97;;
5117;SDS011;2578;51.622;7.046;2022-12-18T08:46:21;2.70;;;1.80;;
5117;SDS011;2578;51.622;7.046;2022-12-18T08:48:50;4.00;;;3.60;;
5117;SDS011;2578;51.622;7.046;2022-12-18T08:51:16;2.80;;;2.00;;
5117;SDS011;2578;51.622;7.046;2022-12-18T08:53:42;2.80;;;2.07;;
5117;SDS011;2578;51.622;7.046;2022-12-18T08:56:09;3.20;;;2.83;;
5117;SDS011;2578;51.622;7.046;2022-12-18T08:58:35;2.90;;;2.10;;
5117;SDS011;2578;51.622;7.046;2022-12-18T09:01:01;3.57;;;3.00;;
5117;SDS011;2578;51.622;7.046;2022-12-18T09:03:30;2.70;;;1.70;;
5117;SDS011;2578;51.622;7.046;2022-12-18T09:05:56;3.00;;;2.50;;
5117;SDS011;2578;51.622;7.046;2022-12-18T09:08:22;2.80;;;2.10;;
5117;SDS011;2578;51.622;7.046;2022-12-18T09:10:48;2.80;;;1.90;;
5117;SDS011;2578;51.622;7.046;2022-12-18T09:13:15;2.80;;;1.70;;
5117;SDS011;2578;51.622;7.046;2022-12-18T09:15:45;3.00;;;2.00;;
5117;SDS011;2578;51.622;7.046;2022-12-18T09:18:13;2.80;;;1.63;;
5117;SDS011;2578;51.622;7.046;2022-12-18T09:20:40;3.00;;;2.10;;
5117;SDS011;2578;51.622;7.046;2022-12-18T09:23:06;2.77;;;1.60;;
5117;SDS011;2578;51.622;7.046;2022-12-18T09:25:33;12.30;;;10.97;;
5117;SDS011;2578;51.622;7.046;2022-12-18T09:28:00;2.70;;;1.50;;
5117;SDS011;2578;51.622;7.046;2022-12-18T09:30:31;2.90;;;1.70;;
5117;SDS011;2578;51.622;7.046;2022-12-18T09:32:59;2.83;;;1.70;;
5117;SDS011;2578;51.622;7.046;2022-12-18T09:35:25;2.90;;;1.60;;
5117;SDS011;2578;51.622;7.046;2022-12-18T09:37:52;2.83;;;1.50;;
5117;SDS011;2578;51.622;7.046;2022-12-18T09:40:20;2.80;;;1.30;;
5117;SDS011;2578;51.622;7.046;2022-12-18T09:42:52;3.00;;;1.80;;
5117;SDS011;2578;51.622;7.046;2022-12-18T09:45:22;2.83;;;1.30;;
5117;SDS011;2578;51.622;7.046;2022-12-18T09:47:49;2.80;;;1.30;;
5117;SDS011;2578;51.622;7.046;2022-12-18T09:50:32;2.90;;;1.60;;
5117;SDS011;2578;51.622;7.046;2022-12-18T09:53:04;3.00;;;1.80;;
5117;SDS011;2578;51.622;7.046;2022-12-18T09:55:36;2.90;;;1.80;;
5117;SDS011;2578;51.622;7.046;2022-12-18T09:58:24;3.00;;;1.80;;
5117;SDS011;2578;51.622;7.046;2022-12-18T10:00:53;2.90;;;1.70;;
5117;SDS011;2578;51.622;7.046;2022-12-18T10:03:19;3.00;;;1.60;;
5117;SDS011;2578;51.622;7.046;2022-12-18T10:08:24;3.20;;;2.40;;
5117;SDS011;2578;51.622;7.046;2022-12-18T10:11:03;4.10;;;3.70;;
5117;SDS011;2578;51.622;7.046;2022-12-18T10:13:42;4.30;;;3.90;;
5117;SDS011;2578;51.622;7.046;2022-12-18T10:22:11;3.70;;;3.40;;
5117;SDS011;2578;51.622;7.046;2022-12-18T10:27:44;4.40;;;4.00;;
5117;SDS011;2578;51.622;7.046;2022-12-18T10:30:16;4.60;;;4.20;;
5117;SDS011;2578;51.622;7.046;2022-12-18T10:32:44;6.27;;;5.87;;
5117;SDS011;2578;51.622;7.046;2022-12-18T10:35:20;5.10;;;4.70;;
5117;SDS011;2578;51.622;7.046;2022-12-18T10:40:32;9.90;;;9.30;;
5117;SDS011;2578;51.622;7.046;2022-12-18T10:43:12;10.63;;;10.03;;
5117;SDS011;2578;51.622;7.046;2022-12-18T10:45:39;10.30;;;9.70;;
5117;SDS011;2578;51.622;7.046;2022-12-18T10:48:17;11.30;;;10.60;;
5117;SDS011;2578;51.622;7.046;2022-12-18T10:50:46;11.60;;;10.90;;
5117;SDS011;2578;51.622;7.046;2022-12-18T10:53:19;11.33;;;10.63;;
5117;SDS011;2578;51.622;7.046;2022-12-18T10:55:47;11.80;;;11.10;;
5117;SDS011;2578;51.622;7.046;2022-12-18T10:58:16;12.40;;;11.70;;
5117;SDS011;2578;51.622;7.046;2022-12-18T11:01:10;12.47;;;11.77;;
5117;SDS011;2578;51.622;7.046;2022-12-18T11:03:44;12.10;;;11.40;;
5117;SDS011;2578;51.622;7.046;2022-12-18T11:06:12;12.50;;;11.60;;
5117;SDS011;2578;51.622;7.046;2022-12-18T11:11:48;10.17;;;9.47;;
5117;SDS011;2578;51.622;7.046;2022-12-18T11:14:27;9.70;;;9.10;;
5117;SDS011;2578;51.622;7.046;2022-12-18T11:17:31;10.13;;;9.43;;
5117;SDS011;2578;51.622;7.046;2022-12-18T11:20:00;9.80;;;9.20;;
5117;SDS011;2578;51.622;7.046;2022-12-18T11:22:32;10.10;;;9.40;;
5117;SDS011;2578;51.622;7.046;2022-12-18T11:25:33;11.77;;;10.50;;
5117;SDS011;2578;51.622;7.046;2022-12-18T11:28:02;9.27;;;8.67;;
5117;SDS011;2578;51.622;7.046;2022-12-18T11:30:33;10.67;;;9.77;;
5117;SDS011;2578;51.622;7.046;2022-12-18T11:35:39;9.27;;;8.67;;
5117;SDS011;2578;51.622;7.046;2022-12-18T11:38:34;9.00;;;8.30;;
5117;SDS011;2578;51.622;7.046;2022-12-18T11:41:04;11.00;;;10.23;;
5117;SDS011;2578;51.622;7.046;2022-12-18T11:44:11;9.17;;;8.57;;
5117;SDS011;2578;51.622;7.046;2022-12-18T11:47:00;8.73;;;8.13;;
5117;SDS011;2578;51.622;7.046;2022-12-18T11:49:32;8.03;;;7.43;;
5117;SDS011;2578;51.622;7.046;2022-12-18T11:52:04;8.27;;;7.57;;
5117;SDS011;2578;51.622;7.046;2022-12-18T11:54:40;8.43;;;7.73;;
5117;SDS011;2578;51.622;7.046;2022-12-18T12:18:37;7.80;;;7.30;;
5117;SDS011;2578;51.622;7.046;2022-12-18T12:21:18;8.00;;;7.40;;
5117;SDS011;2578;51.622;7.046;2022-12-18T12:27:04;9.23;;;8.53;;
5117;SDS011;2578;51.622;7.046;2022-12-18T12:32:22;7.93;;;7.43;;
5117;SDS011;2578;51.622;7.046;2022-12-18T12:35:09;9.70;;;8.80;;
5117;SDS011;2578;51.622;7.046;2022-12-18T12:40:07;9.50;;;8.70;;
5117;SDS011;2578;51.622;7.046;2022-12-18T12:42:41;8.43;;;7.93;;
5117;SDS011;2578;51.622;7.046;2022-12-18T12:45:33;8.03;;;7.43;;
5117;SDS011;2578;51.622;7.046;2022-12-18T12:48:31;7.90;;;7.40;;
5117;SDS011;2578;51.622;7.046;2022-12-18T12:51:01;8.43;;;7.83;;
5117;SDS011;2578;51.622;7.046;2022-12-18T12:53:34;8.23;;;7.73;;
5117;SDS011;2578;51.622;7.046;2022-12-18T12:56:03;8.10;;;7.60;;
5117;SDS011;2578;51.622;7.046;2022-12-18T12:58:38;8.13;;;7.63;;
5117;SDS011;2578;51.622;7.046;2022-12-18T13:06:37;8.90;;;8.30;;
5117;SDS011;2578;51.622;7.046;2022-12-18T13:09:10;8.70;;;8.20;;
5117;SDS011;2578;51.622;7.046;2022-12-18T13:14:38;9.60;;;9.00;;
5117;SDS011;2578;51.622;7.046;2022-12-18T13:17:15;9.33;;;8.73;;
5117;SDS011;2578;51.622;7.046;2022-12-18T13:22:23;9.50;;;8.90;;
5117;SDS011;2578;51.622;7.046;2022-12-18T13:33:30;52.10;;;11.60;;
5117;SDS011;2578;51.622;7.046;2022-12-18T13:38:35;11.13;;;10.13;;
5117;SDS011;2578;51.622;7.046;2022-12-18T13:43:39;11.03;;;10.03;;
5117;SDS011;2578;51.622;7.046;2022-12-18T13:46:28;10.93;;;10.20;;
5117;SDS011;2578;51.622;7.046;2022-12-18T13:51:39;10.03;;;9.43;;
5117;SDS011;2578;51.622;7.046;2022-12-18T13:54:24;11.80;;;11.00;;
5117;SDS011;2578;51.622;7.046;2022-12-18T13:56:50;9.83;;;9.23;;
5117;SDS011;2578;51.622;7.046;2022-12-18T14:01:58;18.73;;;12.97;;
5117;SDS011;2578;51.622;7.046;2022-12-18T14:04:45;12.93;;;12.13;;
5117;SDS011;2578;51.622;7.046;2022-12-18T14:07:22;13.27;;;12.17;;
5117;SDS011;2578;51.622;7.046;2022-12-18T14:09:53;11.83;;;11.03;;
5117;SDS011;2578;51.622;7.046;2022-12-18T14:12:29;13.17;;;12.23;;
5117;SDS011;2578;51.622;7.046;2022-12-18T14:17:50;11.77;;;11.07;;
5117;SDS011;2578;51.622;7.046;2022-12-18T14:20:28;13.00;;;12.10;;
5117;SDS011;2578;51.622;7.046;2022-12-18T14:22:56;14.77;;;13.60;;
5117;SDS011;2578;51.622;7.046;2022-12-18T14:25:24;14.13;;;13.13;;
5117;SDS011;2578;51.622;7.046;2022-12-18T14:28:08;13.70;;;12.47;;
5117;SDS011;2578;51.622;7.046;2022-12-18T14:30:39;14.10;;;13.13;;
5117;SDS011;2578;51.622;7.046;2022-12-18T14:33:10;14.83;;;13.50;;
5117;SDS011;2578;51.622;7.046;2022-12-18T14:35:39;17.30;;;16.10;;
5117;SDS011;2578;51.622;7.046;2022-12-18T14:40:45;16.23;;;12.97;;
5117;SDS011;2578;51.622;7.046;2022-12-18T14:43:11;11.57;;;10.87;;
5117;SDS011;2578;51.622;7.046;2022-12-18T14:45:37;12.73;;;11.90;;
5117;SDS011;2578;51.622;7.046;2022-12-18T14:50:36;14.43;;;13.20;;
5117;SDS011;2578;51.622;7.046;2022-12-18T14:53:02;11.30;;;10.60;;
5117;SDS011;2578;51.622;7.046;2022-12-18T14:55:28;13.53;;;12.37;;
5117;SDS011;2578;51.622;7.046;2022-12-18T14:57:54;13.10;;;12.10;;
5117;SDS011;2578;51.622;7.046;2022-12-18T15:00:21;24.40;;;16.63;;
5117;SDS011;2578;51.622;7.046;2022-12-18T15:02:53;12.77;;;11.87;;
5117;SDS011;2578;51.622;7.046;2022-12-18T15:07:53;12.07;;;11.30;;
5117;SDS011;2578;51.622;7.046;2022-12-18T15:10:21;11.03;;;10.33;;
5117;SDS011;2578;51.622;7.046;2022-12-18T15:17:58;10.90;;;10.20;;
5117;SDS011;2578;51.622;7.046;2022-12-18T15:20:24;11.47;;;10.77;;
5117;SDS011;2578;51.622;7.046;2022-12-18T15:22:50;14.20;;;13.20;;
5117;SDS011;2578;51.622;7.046;2022-12-18T15:25:25;11.90;;;11.10;;
5117;SDS011;2578;51.622;7.046;2022-12-18T15:27:58;12.00;;;11.00;;
5117;SDS011;2578;51.622;7.046;2022-12-18T15:30:24;12.37;;;11.57;;
5117;SDS011;2578;51.622;7.046;2022-12-18T15:32:51;17.13;;;15.57;;
5117;SDS011;2578;51.622;7.046;2022-12-18T15:37:47;11.93;;;11.03;;
5117;SDS011;2578;51.622;7.046;2022-12-18T15:40:17;11.40;;;10.50;;
5117;SDS011;2578;51.622;7.046;2022-12-18T15:42:45;11.43;;;10.30;;
5117;SDS011;2578;51.622;7.046;2022-12-18T15:45:29;12.73;;;11.83;;
5117;SDS011;2578;51.622;7.046;2022-12-18T15:47:55;11.33;;;10.63;;
5117;SDS011;2578;51.622;7.046;2022-12-18T15:50:21;11.67;;;10.63;;
5117;SDS011;2578;51.622;7.046;2022-12-18T15:52:48;13.47;;;12.57;;
5117;SDS011;2578;51.622;7.046;2022-12-18T15:55:17;12.70;;;11.90;;
5117;SDS011;2578;51.622;7.046;2022-12-18T15:58:04;14.67;;;13.63;;
5117;SDS011;2578;51.622;7.046;2022-12-18T16:00:31;12.00;;;11.20;;
5117;SDS011;2578;51.622;7.046;2022-12-18T16:02:58;15.63;;;14.03;;
5117;SDS011;2578;51.622;7.046;2022-12-18T16:05:24;15.40;;;14.40;;
5117;SDS011;2578;51.622;7.046;2022-12-18T16:07:51;13.07;;;12.27;;
5117;SDS011;2578;51.622;7.046;2022-12-18T16:10:17;15.50;;;14.43;;
5117;SDS011;2578;51.622;7.046;2022-12-18T16:12:43;13.30;;;12.50;;
5117;SDS011;2578;51.622;7.046;2022-12-18T16:15:09;14.63;;;13.73;;
5117;SDS011;2578;51.622;7.046;2022-12-18T16:17:38;17.33;;;15.53;;
5117;SDS011;2578;51.622;7.046;2022-12-18T16:20:05;16.30;;;14.57;;
5117;SDS011;2578;51.622;7.046;2022-12-18T16:22:39;15.40;;;14.20;;
5117;SDS011;2578;51.622;7.046;2022-12-18T16:25:08;15.57;;;14.57;;
5117;SDS011;2578;51.622;7.046;2022-12-18T16:27:47;16.80;;;15.50;;
5117;SDS011;2578;51.622;7.046;2022-12-18T16:30:14;18.00;;;16.50;;
5117;SDS011;2578;51.622;7.046;2022-12-18T16:32:41;17.27;;;15.87;;
5117;SDS011;2578;51.622;7.046;2022-12-18T16:35:09;16.77;;;15.63;;
5117;SDS011;2578;51.622;7.046;2022-12-18T16:37:39;18.53;;;17.23;;
5117;SDS011;2578;51.622;7.046;2022-12-18T16:40:07;16.27;;;15.27;;
5117;SDS011;2578;51.622;7.046;2022-12-18T16:42:37;16.27;;;15.27;;
5117;SDS011;2578;51.622;7.046;2022-12-18T16:45:05;16.53;;;15.07;;
5117;SDS011;2578;51.622;7.046;2022-12-18T16:47:32;15.00;;;14.10;;
5117;SDS011;2578;51.622;7.046;2022-12-18T16:49:58;16.70;;;15.50;;
5117;SDS011;2578;51.622;7.046;2022-12-18T16:52:24;15.50;;;14.40;;
5117;SDS011;2578;51.622;7.046;2022-12-18T16:54:49;15.57;;;14.57;;
5117;SDS011;2578;51.622;7.046;2022-12-18T16:57:16;16.40;;;15.20;;
5117;SDS011;2578;51.622;7.046;2022-12-18T16:59:42;16.90;;;15.80;;
5117;SDS011;2578;51.622;7.046;2022-12-18T17:02:12;17.23;;;15.93;;
5117;SDS011;2578;51.622;7.046;2022-12-18T17:04:39;18.57;;;17.13;;
5117;SDS011;2578;51.622;7.046;2022-12-18T17:07:06;15.60;;;14.60;;
5117;SDS011;2578;51.622;7.046;2022-12-18T17:09:31;17.57;;;16.27;;
5117;SDS011;2578;51.622;7.046;2022-12-18T17:11:57;16.57;;;15.27;;
5117;SDS011;2578;51.622;7.046;2022-12-18T17:14:24;16.50;;;15.37;;
5117;SDS011;2578;51.622;7.046;2022-12-18T17:16:51;17.10;;;15.50;;
5117;SDS011;2578;51.622;7.046;2022-12-18T17:19:18;17.37;;;16.17;;
5117;SDS011;2578;51.622;7.046;2022-12-18T17:21:44;16.20;;;15.20;;
5117;SDS011;2578;51.622;7.046;2022-12-18T17:24:13;16.93;;;15.73;;
5117;SDS011;2578;51.622;7.046;2022-12-18T17:26:39;15.03;;;14.03;;